SAA716 HUEN-FACT
Flight info
| Callsign | SAA716 |
|---|---|
| Flight time | N/A |
| Altitude | 38000 |
| Route | APNAD2B APNAD DCT ETUTI DCT TOBAN DCT DURTO DCT UTVEX/N0468F400 UT916 AVUSA DCT NEXIT DCT ERDAS ERDAS1C |
| Aircraft | A343/H-SDE2E3FGHIJ4J5M1RWXY/LB1D1 |
Departure
| Time | 2026-04-25 14:56 |
|---|---|
| Airport | Entebbe International Airport (HUEN) |
Arrival
| Time | N/A |
|---|---|
| Airport | Cape Town International Airport (FACT) |
| Time | Latitude | Longitude | Altitude | Speed | Heading |
|---|---|---|---|---|---|
| 2026-04-25 14:38 | 0.04525 | 32.44180 | 3784 ft | 0 kts | 93° |
| 2026-04-25 14:41 | 0.04525 | 32.44175 | 3794 ft | 4 kts | 92° |
| 2026-04-25 14:41 | 0.04526 | 32.44148 | 3792 ft | 4 kts | 89° |
| 2026-04-25 14:41 | 0.04525 | 32.44122 | 3793 ft | 4 kts | 72° |
| 2026-04-25 14:42 | 0.04512 | 32.44105 | 3794 ft | 4 kts | 11° |
| 2026-04-25 14:42 | 0.04503 | 32.44103 | 3790 ft | 4 kts | 357° |
| 2026-04-25 14:42 | 0.04480 | 32.44106 | 3785 ft | 0 kts | 352° |
| 2026-04-25 14:46 | 0.04481 | 32.44106 | 3785 ft | 1 kts | 352° |
| 2026-04-25 14:46 | 0.04497 | 32.44103 | 3788 ft | 4 kts | 352° |
| 2026-04-25 14:47 | 0.04539 | 32.44098 | 3796 ft | 8 kts | 352° |
| 2026-04-25 14:47 | 0.04581 | 32.44092 | 3792 ft | 10 kts | 352° |
| 2026-04-25 14:47 | 0.04689 | 32.44078 | 3792 ft | 14 kts | 352° |
| 2026-04-25 14:47 | 0.04792 | 32.44062 | 3793 ft | 16 kts | 351° |
| 2026-04-25 14:48 | 0.04889 | 32.44021 | 3793 ft | 15 kts | 331° |
| 2026-04-25 14:48 | 0.04997 | 32.43996 | 3783 ft | 17 kts | 352° |
| 2026-04-25 14:48 | 0.05116 | 32.43979 | 3786 ft | 17 kts | 352° |
| 2026-04-25 14:48 | 0.05220 | 32.43964 | 3785 ft | 12 kts | 352° |
| 2026-04-25 14:49 | 0.05279 | 32.43946 | 3794 ft | 6 kts | 333° |
| 2026-04-25 14:49 | 0.05309 | 32.43922 | 3797 ft | 6 kts | 315° |
| 2026-04-25 14:49 | 0.05337 | 32.43882 | 3797 ft | 8 kts | 302° |
| 2026-04-25 14:49 | 0.05372 | 32.43828 | 3795 ft | 10 kts | 303° |
| 2026-04-25 14:50 | 0.05403 | 32.43780 | 3791 ft | 4 kts | 303° |
| 2026-04-25 14:50 | 0.05406 | 32.43776 | 3794 ft | 0 kts | 303° |
| 2026-04-25 14:53 | 0.05407 | 32.43775 | 3797 ft | 1 kts | 303° |
| 2026-04-25 14:53 | 0.05420 | 32.43755 | 3798 ft | 6 kts | 304° |
| 2026-04-25 14:53 | 0.05454 | 32.43719 | 3798 ft | 9 kts | 321° |
| 2026-04-25 14:54 | 0.05494 | 32.43677 | 3793 ft | 7 kts | 293° |
| 2026-04-25 14:54 | 0.05484 | 32.43643 | 3796 ft | 4 kts | 225° |
| 2026-04-25 14:54 | 0.05445 | 32.43637 | 3793 ft | 7 kts | 180° |
| 2026-04-25 14:54 | 0.05421 | 32.43640 | 3790 ft | 1 kts | 169° |
| 2026-04-25 14:55 | 0.05407 | 32.43642 | 3789 ft | 9 kts | 171° |
| 2026-04-25 14:55 | 0.05188 | 32.43673 | 3790 ft | 57 kts | 172° |
| 2026-04-25 14:56 | 0.04635 | 32.43748 | 3789 ft | 103 kts | 172° |
| 2026-04-25 14:56 | 0.03788 | 32.43865 | 3784 ft | 141 kts | 172° |
| 2026-04-25 14:56 | 0.02701 | 32.44014 | 3808 ft | 170 kts | 172° |
| 2026-04-25 14:56 | 0.01574 | 32.44194 | 4401 ft | 157 kts | 172° |
| 2026-04-25 14:57 | 0.00482 | 32.44370 | 4787 ft | 164 kts | 172° |
| 2026-04-25 14:57 | -0.00690 | 32.44508 | 5067 ft | 179 kts | 174° |
| 2026-04-25 14:57 | -0.01997 | 32.44658 | 5287 ft | 197 kts | 172° |
| 2026-04-25 14:57 | -0.03415 | 32.44855 | 5566 ft | 214 kts | 171° |
| 2026-04-25 14:58 | -0.04938 | 32.45071 | 5851 ft | 231 kts | 171° |
| 2026-04-25 14:58 | -0.06609 | 32.45306 | 6087 ft | 253 kts | 171° |
| 2026-04-25 14:58 | -0.08386 | 32.45554 | 6542 ft | 263 kts | 171° |
| 2026-04-25 14:58 | -0.10227 | 32.45810 | 7074 ft | 271 kts | 171° |
| 2026-04-25 14:59 | -0.12114 | 32.46073 | 7654 ft | 276 kts | 171° |
| 2026-04-25 14:59 | -0.14038 | 32.46340 | 8269 ft | 281 kts | 171° |
| 2026-04-25 14:59 | -0.15993 | 32.46611 | 8915 ft | 286 kts | 171° |
| 2026-04-25 14:59 | -0.17974 | 32.46887 | 9546 ft | 290 kts | 171° |
| 2026-04-25 15:00 | -0.19986 | 32.47166 | 10163 ft | 294 kts | 171° |
| 2026-04-25 15:00 | -0.22064 | 32.47456 | 10493 ft | 309 kts | 171° |
| 2026-04-25 15:00 | -0.24248 | 32.47763 | 10773 ft | 324 kts | 171° |
| 2026-04-25 15:00 | -0.26535 | 32.48083 | 11031 ft | 339 kts | 171° |
| 2026-04-25 15:01 | -0.28909 | 32.48411 | 11311 ft | 352 kts | 171° |
| 2026-04-25 15:01 | -0.31382 | 32.48753 | 11571 ft | 365 kts | 171° |
| 2026-04-25 15:01 | -0.33936 | 32.49107 | 11844 ft | 376 kts | 171° |
| 2026-04-25 15:01 | -0.36551 | 32.49469 | 12238 ft | 382 kts | 171° |
| 2026-04-25 15:02 | -0.39202 | 32.49836 | 12662 ft | 387 kts | 171° |
| 2026-04-25 15:02 | -0.41884 | 32.50208 | 13121 ft | 392 kts | 171° |
| 2026-04-25 15:02 | -0.44594 | 32.50584 | 13610 ft | 395 kts | 171° |
| 2026-04-25 15:02 | -0.47329 | 32.50963 | 14054 ft | 398 kts | 171° |
| 2026-04-25 15:03 | -0.50090 | 32.51346 | 14496 ft | 401 kts | 171° |
| 2026-04-25 15:03 | -0.52864 | 32.51732 | 14923 ft | 404 kts | 171° |
| 2026-04-25 15:03 | -0.55659 | 32.52120 | 15353 ft | 407 kts | 171° |
| 2026-04-25 15:03 | -0.58430 | 32.52505 | 15804 ft | 409 kts | 171° |
| 2026-04-25 15:04 | -0.61263 | 32.52898 | 16244 ft | 412 kts | 170° |
| 2026-04-25 15:04 | -0.64113 | 32.53294 | 16691 ft | 415 kts | 170° |
| 2026-04-25 15:04 | -0.66994 | 32.53695 | 17049 ft | 420 kts | 171° |
| 2026-04-25 15:04 | -0.69902 | 32.54099 | 17467 ft | 423 kts | 171° |
| 2026-04-25 15:05 | -0.72829 | 32.54505 | 17929 ft | 426 kts | 171° |
| 2026-04-25 15:05 | -0.75793 | 32.54804 | 18350 ft | 430 kts | 176° |
| 2026-04-25 15:05 | -0.78794 | 32.54884 | 18721 ft | 433 kts | 178° |
| 2026-04-25 15:06 | -0.84848 | 32.54956 | 19527 ft | 437 kts | 178° |
| 2026-04-25 15:06 | -0.87897 | 32.54994 | 19921 ft | 440 kts | 178° |
| 2026-04-25 15:06 | -0.90963 | 32.55033 | 20296 ft | 442 kts | 178° |
| 2026-04-25 15:06 | -0.94045 | 32.55074 | 20684 ft | 444 kts | 178° |
| 2026-04-25 15:07 | -0.97144 | 32.55087 | 21060 ft | 447 kts | 180° |
| 2026-04-25 15:07 | -1.00252 | 32.54767 | 21426 ft | 451 kts | 190° |
| 2026-04-25 15:07 | -1.03279 | 32.53921 | 21828 ft | 453 kts | 198° |
| 2026-04-25 15:07 | -1.06241 | 32.52812 | 22193 ft | 456 kts | 201° |
| 2026-04-25 15:08 | -1.09180 | 32.51599 | 22551 ft | 458 kts | 202° |
| 2026-04-25 15:08 | -1.12118 | 32.50339 | 22910 ft | 461 kts | 202° |
| 2026-04-25 15:08 | -1.15072 | 32.49064 | 23264 ft | 463 kts | 202° |
| 2026-04-25 15:08 | -1.17996 | 32.47812 | 23607 ft | 465 kts | 202° |
| 2026-04-25 15:09 | -1.20986 | 32.46545 | 23869 ft | 467 kts | 202° |
| 2026-04-25 15:09 | -1.23989 | 32.45284 | 24150 ft | 469 kts | 202° |
| 2026-04-25 15:09 | -1.30040 | 32.42762 | 24699 ft | 473 kts | 202° |
| 2026-04-25 15:10 | -1.33087 | 32.41496 | 24957 ft | 475 kts | 202° |
| 2026-04-25 15:10 | -1.36146 | 32.40225 | 25228 ft | 477 kts | 202° |
| 2026-04-25 15:10 | -1.42296 | 32.37667 | 25798 ft | 480 kts | 202° |
| 2026-04-25 15:11 | -1.45390 | 32.36379 | 26078 ft | 482 kts | 202° |
| 2026-04-25 15:11 | -1.48493 | 32.35088 | 26345 ft | 484 kts | 202° |
| 2026-04-25 15:11 | -1.51607 | 32.33791 | 26647 ft | 485 kts | 202° |
| 2026-04-25 15:12 | -1.57859 | 32.31189 | 27177 ft | 488 kts | 202° |
| 2026-04-25 15:12 | -1.61002 | 32.29880 | 27453 ft | 490 kts | 202° |
| 2026-04-25 15:12 | -1.64157 | 32.28567 | 27700 ft | 493 kts | 202° |
| 2026-04-25 15:12 | -1.65185 | 32.28139 | 27776 ft | 493 kts | 202° |
| 2026-04-25 15:13 | -1.70516 | 32.25919 | 28192 ft | 496 kts | 202° |
| 2026-04-25 15:13 | -1.76910 | 32.23257 | 28704 ft | 500 kts | 202° |
| 2026-04-25 15:13 | -1.80130 | 32.21916 | 28953 ft | 501 kts | 202° |
| 2026-04-25 15:14 | -1.83312 | 32.20591 | 29243 ft | 502 kts | 202° |
| 2026-04-25 15:14 | -1.86530 | 32.19251 | 29617 ft | 500 kts | 202° |
| 2026-04-25 15:14 | -1.89733 | 32.17918 | 29964 ft | 499 kts | 202° |
| 2026-04-25 15:14 | -1.92944 | 32.16580 | 30235 ft | 499 kts | 202° |
| 2026-04-25 15:15 | -1.96146 | 32.15248 | 30522 ft | 498 kts | 202° |
| 2026-04-25 15:15 | -1.99348 | 32.13914 | 30760 ft | 499 kts | 202° |
| 2026-04-25 15:15 | -2.02547 | 32.12581 | 31038 ft | 497 kts | 202° |
| 2026-04-25 15:15 | -2.05735 | 32.11253 | 31348 ft | 496 kts | 202° |
| 2026-04-25 15:16 | -2.08919 | 32.09927 | 31604 ft | 495 kts | 202° |
| 2026-04-25 15:16 | -2.12093 | 32.08605 | 31906 ft | 493 kts | 202° |
| 2026-04-25 15:16 | -2.18429 | 32.05965 | 32455 ft | 491 kts | 202° |
| 2026-04-25 15:17 | -2.24710 | 32.03348 | 33002 ft | 489 kts | 202° |
| 2026-04-25 15:17 | -2.27846 | 32.02041 | 33239 ft | 488 kts | 202° |
| 2026-04-25 15:17 | -2.30986 | 32.00733 | 33400 ft | 490 kts | 203° |
| 2026-04-25 15:18 | -2.34137 | 31.99420 | 33601 ft | 490 kts | 203° |
| 2026-04-25 15:18 | -2.40419 | 31.96802 | 33923 ft | 491 kts | 203° |
| 2026-04-25 15:18 | -2.43573 | 31.95487 | 33922 ft | 491 kts | 202° |
| 2026-04-25 15:19 | -2.47745 | 31.93748 | 33923 ft | 489 kts | 203° |
| 2026-04-25 15:19 | -2.56099 | 31.90266 | 33925 ft | 489 kts | 203° |
| 2026-04-25 15:20 | -2.62384 | 31.87646 | 33934 ft | 489 kts | 202° |
| 2026-04-25 15:20 | -2.68670 | 31.85025 | 33933 ft | 490 kts | 202° |
| 2026-04-25 15:21 | -2.74957 | 31.82404 | 33935 ft | 490 kts | 202° |
| 2026-04-25 15:21 | -2.81254 | 31.79778 | 33934 ft | 490 kts | 202° |
| 2026-04-25 15:22 | -2.87537 | 31.77157 | 33939 ft | 489 kts | 202° |
| 2026-04-25 15:22 | -2.93812 | 31.74539 | 33938 ft | 489 kts | 202° |
| 2026-04-25 15:23 | -3.00091 | 31.71920 | 33942 ft | 489 kts | 202° |
| 2026-04-25 15:23 | -3.06373 | 31.69299 | 33940 ft | 489 kts | 202° |
| 2026-04-25 15:24 | -3.12618 | 31.66693 | 33946 ft | 489 kts | 202° |
| 2026-04-25 15:24 | -3.16823 | 31.64938 | 33942 ft | 489 kts | 202° |
| 2026-04-25 15:25 | -3.25189 | 31.61446 | 33952 ft | 489 kts | 202° |
| 2026-04-25 15:25 | -3.31473 | 31.58823 | 33948 ft | 490 kts | 202° |
| 2026-04-25 15:26 | -3.37768 | 31.56195 | 33947 ft | 490 kts | 202° |
| 2026-04-25 15:26 | -3.44106 | 31.53548 | 33948 ft | 490 kts | 202° |
| 2026-04-25 15:27 | -3.50398 | 31.50920 | 33948 ft | 490 kts | 202° |
| 2026-04-25 15:28 | -3.59775 | 31.47003 | 33949 ft | 488 kts | 202° |
| 2026-04-25 15:28 | -3.66047 | 31.44383 | 33948 ft | 488 kts | 202° |
| 2026-04-25 15:29 | -3.72322 | 31.41761 | 33954 ft | 488 kts | 202° |
| 2026-04-25 15:29 | -3.78596 | 31.39139 | 33954 ft | 488 kts | 202° |
| 2026-04-25 15:30 | -3.84869 | 31.36517 | 33955 ft | 489 kts | 202° |
| 2026-04-25 15:30 | -3.90087 | 31.34335 | 33958 ft | 489 kts | 202° |
| 2026-04-25 15:31 | -3.96364 | 31.31711 | 33962 ft | 489 kts | 202° |
| 2026-04-25 15:31 | -4.02637 | 31.29088 | 33957 ft | 489 kts | 202° |
| 2026-04-25 15:32 | -4.08914 | 31.26463 | 33970 ft | 489 kts | 201° |
| 2026-04-25 15:32 | -4.15190 | 31.23837 | 33969 ft | 488 kts | 201° |
| 2026-04-25 15:33 | -4.24592 | 31.19903 | 33973 ft | 488 kts | 201° |
| 2026-04-25 15:33 | -4.30852 | 31.17283 | 33981 ft | 488 kts | 201° |
| 2026-04-25 15:34 | -4.37115 | 31.14662 | 33980 ft | 488 kts | 201° |
| 2026-04-25 15:34 | -4.42324 | 31.12481 | 33977 ft | 488 kts | 201° |
| 2026-04-25 15:35 | -4.52781 | 31.08102 | 33984 ft | 488 kts | 201° |
| 2026-04-25 15:36 | -4.62170 | 31.04169 | 33991 ft | 488 kts | 201° |
| 2026-04-25 15:36 | -4.68403 | 31.01558 | 33990 ft | 488 kts | 201° |
| 2026-04-25 15:37 | -4.74662 | 30.98935 | 33990 ft | 488 kts | 201° |
| 2026-04-25 15:37 | -4.80971 | 30.96291 | 33991 ft | 488 kts | 201° |
| 2026-04-25 15:38 | -4.87194 | 30.93682 | 33995 ft | 488 kts | 201° |
| 2026-04-25 15:38 | -4.93465 | 30.91053 | 33997 ft | 488 kts | 201° |
| 2026-04-25 15:39 | -4.99738 | 30.88422 | 33996 ft | 488 kts | 201° |
| 2026-04-25 15:39 | -5.05997 | 30.85797 | 33993 ft | 488 kts | 201° |
| 2026-04-25 15:40 | -5.11213 | 30.83608 | 33989 ft | 488 kts | 201° |
| 2026-04-25 15:40 | -5.18535 | 30.80536 | 33987 ft | 488 kts | 201° |
| 2026-04-25 15:41 | -5.24806 | 30.77903 | 33991 ft | 488 kts | 201° |
| 2026-04-25 15:41 | -5.31071 | 30.75273 | 33991 ft | 488 kts | 201° |
| 2026-04-25 15:42 | -5.37334 | 30.72643 | 33994 ft | 488 kts | 201° |
| 2026-04-25 15:42 | -5.43598 | 30.70013 | 33989 ft | 488 kts | 201° |
| 2026-04-25 15:43 | -5.49856 | 30.67383 | 33993 ft | 488 kts | 201° |
| 2026-04-25 15:43 | -5.56079 | 30.64768 | 33996 ft | 488 kts | 201° |
| 2026-04-25 15:44 | -5.62336 | 30.62138 | 33998 ft | 487 kts | 201° |
| 2026-04-25 15:44 | -5.68583 | 30.59512 | 33995 ft | 486 kts | 201° |
| 2026-04-25 15:45 | -5.74827 | 30.56886 | 33995 ft | 486 kts | 201° |
| 2026-04-25 15:45 | -5.80026 | 30.54700 | 33987 ft | 487 kts | 201° |
| 2026-04-25 15:46 | -5.87335 | 30.51625 | 33991 ft | 487 kts | 201° |
| 2026-04-25 15:46 | -5.93581 | 30.48996 | 33981 ft | 486 kts | 201° |
| 2026-04-25 15:47 | -5.99818 | 30.46371 | 33980 ft | 485 kts | 201° |
| 2026-04-25 15:47 | -6.06040 | 30.43752 | 33971 ft | 485 kts | 201° |
| 2026-04-25 15:48 | -6.12263 | 30.41131 | 33968 ft | 485 kts | 201° |
| 2026-04-25 15:48 | -6.18487 | 30.38509 | 33954 ft | 485 kts | 201° |
| 2026-04-25 15:49 | -6.24658 | 30.35909 | 33956 ft | 484 kts | 201° |
| 2026-04-25 15:49 | -6.30853 | 30.33298 | 33940 ft | 482 kts | 201° |
| 2026-04-25 15:50 | -6.37034 | 30.30692 | 33937 ft | 482 kts | 201° |
| 2026-04-25 15:50 | -6.43216 | 30.28086 | 33932 ft | 482 kts | 201° |
| 2026-04-25 15:51 | -6.48400 | 30.25899 | 33915 ft | 482 kts | 201° |
| 2026-04-25 15:51 | -6.55580 | 30.22870 | 33911 ft | 482 kts | 201° |
| 2026-04-25 15:52 | -6.61757 | 30.20263 | 33896 ft | 481 kts | 201° |
| 2026-04-25 15:52 | -6.67918 | 30.17662 | 33894 ft | 480 kts | 201° |
| 2026-04-25 15:53 | -6.74080 | 30.15061 | 33890 ft | 480 kts | 201° |
| 2026-04-25 15:53 | -6.80242 | 30.12458 | 33886 ft | 480 kts | 201° |
| 2026-04-25 15:54 | -6.86399 | 30.09857 | 33881 ft | 480 kts | 201° |
| 2026-04-25 15:54 | -6.92554 | 30.07256 | 33883 ft | 479 kts | 201° |
| 2026-04-25 15:55 | -6.98698 | 30.04659 | 33886 ft | 479 kts | 201° |
| 2026-04-25 15:55 | -7.04815 | 30.02073 | 33888 ft | 479 kts | 201° |
| 2026-04-25 15:56 | -7.10956 | 29.99475 | 33905 ft | 479 kts | 201° |
| 2026-04-25 15:56 | -7.17115 | 29.96869 | 33909 ft | 479 kts | 201° |
| 2026-04-25 15:57 | -7.23267 | 29.94266 | 33908 ft | 479 kts | 201° |
| 2026-04-25 15:57 | -7.29411 | 29.91665 | 33945 ft | 479 kts | 201° |
| 2026-04-25 15:58 | -7.35551 | 29.89066 | 33949 ft | 479 kts | 201° |
| 2026-04-25 15:58 | -7.41692 | 29.86464 | 33969 ft | 479 kts | 201° |
| 2026-04-25 15:59 | -7.47795 | 29.83878 | 33972 ft | 479 kts | 201° |
| 2026-04-25 15:59 | -7.53935 | 29.81276 | 33987 ft | 479 kts | 201° |
| 2026-04-25 16:00 | -7.58042 | 29.79535 | 33992 ft | 479 kts | 201° |
| 2026-04-25 16:00 | -7.66219 | 29.76067 | 33987 ft | 478 kts | 201° |
| 2026-04-25 16:01 | -7.72344 | 29.73468 | 33987 ft | 478 kts | 201° |
| 2026-04-25 16:01 | -7.78475 | 29.70866 | 33974 ft | 478 kts | 201° |
| 2026-04-25 16:02 | -7.84602 | 29.68266 | 33973 ft | 478 kts | 201° |
| 2026-04-25 16:02 | -7.90728 | 29.65665 | 33975 ft | 478 kts | 201° |
| 2026-04-25 16:03 | -7.96851 | 29.63064 | 33966 ft | 477 kts | 201° |
| 2026-04-25 16:03 | -8.02968 | 29.60464 | 33965 ft | 477 kts | 201° |
| 2026-04-25 16:04 | -8.09083 | 29.57865 | 33953 ft | 477 kts | 201° |
| 2026-04-25 16:04 | -8.15205 | 29.55262 | 33954 ft | 477 kts | 201° |
| 2026-04-25 16:05 | -8.21327 | 29.52659 | 33947 ft | 477 kts | 202° |
| 2026-04-25 16:06 | -8.30491 | 29.48759 | 33944 ft | 477 kts | 202° |
| 2026-04-25 16:06 | -8.36690 | 29.46360 | 33936 ft | 477 kts | 197° |
| 2026-04-25 16:07 | -8.43021 | 29.44365 | 33934 ft | 476 kts | 196° |
| 2026-04-25 16:07 | -8.49352 | 29.42372 | 33927 ft | 477 kts | 197° |
| 2026-04-25 16:08 | -8.55668 | 29.40309 | 33929 ft | 477 kts | 197° |
| 2026-04-25 16:08 | -8.61962 | 29.38217 | 33914 ft | 477 kts | 198° |
| 2026-04-25 16:09 | -8.68238 | 29.36125 | 33921 ft | 478 kts | 198° |
| 2026-04-25 16:09 | -8.74546 | 29.34025 | 33913 ft | 478 kts | 198° |
| 2026-04-25 16:10 | -8.80864 | 29.31922 | 33918 ft | 478 kts | 198° |
| 2026-04-25 16:10 | -8.87183 | 29.29819 | 33918 ft | 478 kts | 198° |
| 2026-04-25 16:11 | -8.93497 | 29.27717 | 33915 ft | 478 kts | 198° |
| 2026-04-25 16:11 | -8.99804 | 29.25616 | 33916 ft | 477 kts | 198° |
| 2026-04-25 16:12 | -9.06098 | 29.23519 | 33916 ft | 477 kts | 198° |
| 2026-04-25 16:12 | -9.12401 | 29.21418 | 33925 ft | 477 kts | 198° |
| 2026-04-25 16:13 | -9.18657 | 29.19332 | 33924 ft | 476 kts | 198° |
| 2026-04-25 16:13 | -9.24993 | 29.17218 | 33924 ft | 476 kts | 198° |
| 2026-04-25 16:14 | -9.31249 | 29.15131 | 33928 ft | 476 kts | 198° |
| 2026-04-25 16:14 | -9.37543 | 29.13030 | 33927 ft | 476 kts | 198° |
| 2026-04-25 16:15 | -9.43843 | 29.10926 | 33932 ft | 476 kts | 198° |
| 2026-04-25 16:15 | -9.49071 | 29.09180 | 33933 ft | 476 kts | 198° |
| 2026-04-25 16:16 | -9.55369 | 29.07075 | 33941 ft | 476 kts | 198° |
| 2026-04-25 16:16 | -9.61662 | 29.04971 | 33942 ft | 476 kts | 198° |
| 2026-04-25 16:17 | -9.67958 | 29.02865 | 33941 ft | 477 kts | 198° |
| 2026-04-25 16:17 | -9.74263 | 29.00756 | 33931 ft | 477 kts | 198° |
| 2026-04-25 16:18 | -9.80570 | 28.98645 | 33937 ft | 477 kts | 198° |
| 2026-04-25 16:18 | -9.86882 | 28.96531 | 33934 ft | 477 kts | 198° |
| 2026-04-25 16:19 | -9.93186 | 28.94419 | 33956 ft | 477 kts | 198° |
| 2026-04-25 16:19 | -9.99482 | 28.92309 | 33937 ft | 476 kts | 198° |
| 2026-04-25 16:20 | -10.08909 | 28.89148 | 33931 ft | 476 kts | 198° |
| 2026-04-25 16:21 | -10.18333 | 28.85987 | 33925 ft | 475 kts | 198° |
| 2026-04-25 16:21 | -10.24614 | 28.83878 | 33937 ft | 475 kts | 198° |
| 2026-04-25 16:22 | -10.30893 | 28.81770 | 33939 ft | 475 kts | 198° |
| 2026-04-25 16:22 | -10.37172 | 28.79660 | 33941 ft | 475 kts | 198° |
| 2026-04-25 16:23 | -10.43458 | 28.77548 | 33934 ft | 475 kts | 198° |
| 2026-04-25 16:23 | -10.49737 | 28.75436 | 33938 ft | 475 kts | 198° |
| 2026-04-25 16:24 | -10.56017 | 28.73324 | 33929 ft | 475 kts | 198° |
| 2026-04-25 16:24 | -10.62297 | 28.71211 | 33943 ft | 475 kts | 198° |
| 2026-04-25 16:25 | -10.68530 | 28.69112 | 33942 ft | 473 kts | 198° |
| 2026-04-25 16:25 | -10.74768 | 28.67011 | 33944 ft | 473 kts | 198° |
| 2026-04-25 16:26 | -10.81014 | 28.64906 | 33940 ft | 471 kts | 198° |
| 2026-04-25 16:26 | -10.87226 | 28.62812 | 33943 ft | 470 kts | 198° |
| 2026-04-25 16:27 | -10.93428 | 28.60720 | 33949 ft | 470 kts | 199° |
| 2026-04-25 16:27 | -10.99629 | 28.58628 | 33946 ft | 468 kts | 199° |
| 2026-04-25 16:28 | -11.05809 | 28.56542 | 33952 ft | 468 kts | 199° |
| 2026-04-25 16:28 | -11.11984 | 28.54456 | 33949 ft | 468 kts | 199° |
| 2026-04-25 16:29 | -11.18159 | 28.52370 | 33950 ft | 468 kts | 199° |
| 2026-04-25 16:29 | -11.24298 | 28.50295 | 33951 ft | 468 kts | 199° |
| 2026-04-25 16:30 | -11.30474 | 28.48206 | 33963 ft | 467 kts | 199° |
| 2026-04-25 16:30 | -11.36643 | 28.46120 | 33959 ft | 467 kts | 199° |
| 2026-04-25 16:31 | -11.42807 | 28.44033 | 33953 ft | 467 kts | 199° |
| 2026-04-25 16:31 | -11.48980 | 28.41943 | 33949 ft | 467 kts | 199° |
| 2026-04-25 16:32 | -11.55141 | 28.39855 | 33962 ft | 467 kts | 199° |
| 2026-04-25 16:32 | -11.61308 | 28.37765 | 33956 ft | 467 kts | 199° |
| 2026-04-25 16:33 | -11.67467 | 28.35677 | 33958 ft | 466 kts | 199° |
| 2026-04-25 16:33 | -11.73610 | 28.33593 | 33974 ft | 465 kts | 199° |
| 2026-04-25 16:34 | -11.79755 | 28.31507 | 33969 ft | 465 kts | 199° |
| 2026-04-25 16:34 | -11.85895 | 28.29422 | 33972 ft | 465 kts | 199° |
| 2026-04-25 16:35 | -11.91996 | 28.27349 | 33972 ft | 465 kts | 199° |
| 2026-04-25 16:35 | -11.98135 | 28.25262 | 33972 ft | 465 kts | 199° |
| 2026-04-25 16:36 | -12.04273 | 28.23175 | 33974 ft | 464 kts | 199° |
| 2026-04-25 16:36 | -12.10398 | 28.21091 | 33974 ft | 464 kts | 199° |
| 2026-04-25 16:37 | -12.16533 | 28.19003 | 33978 ft | 464 kts | 199° |
| 2026-04-25 16:37 | -12.22666 | 28.16914 | 33983 ft | 464 kts | 199° |
| 2026-04-25 16:38 | -12.28792 | 28.14827 | 33987 ft | 464 kts | 199° |
| 2026-04-25 16:38 | -12.34878 | 28.12752 | 33987 ft | 464 kts | 199° |
| 2026-04-25 16:39 | -12.40946 | 28.10513 | 33987 ft | 463 kts | 202° |
| 2026-04-25 16:39 | -12.46933 | 28.08062 | 33984 ft | 463 kts | 202° |
| 2026-04-25 16:40 | -12.52923 | 28.05618 | 33983 ft | 463 kts | 202° |
| 2026-04-25 16:40 | -12.58931 | 28.03211 | 33984 ft | 462 kts | 201° |
| 2026-04-25 16:41 | -12.64916 | 28.00830 | 33980 ft | 461 kts | 201° |
| 2026-04-25 16:41 | -12.73894 | 27.97259 | 33982 ft | 461 kts | 201° |
| 2026-04-25 16:42 | -12.79832 | 27.94894 | 33987 ft | 461 kts | 201° |
| 2026-04-25 16:42 | -12.85842 | 27.92498 | 33987 ft | 461 kts | 201° |
| 2026-04-25 16:43 | -12.91780 | 27.90129 | 33988 ft | 461 kts | 201° |
| 2026-04-25 16:43 | -12.97750 | 27.87747 | 33985 ft | 460 kts | 201° |
| 2026-04-25 16:44 | -13.03714 | 27.85366 | 33981 ft | 459 kts | 201° |
| 2026-04-25 16:44 | -13.09668 | 27.82988 | 33983 ft | 459 kts | 201° |
| 2026-04-25 16:45 | -13.15622 | 27.80608 | 33986 ft | 459 kts | 201° |
| 2026-04-25 16:45 | -13.21576 | 27.78227 | 33989 ft | 459 kts | 201° |
| 2026-04-25 16:46 | -13.27529 | 27.75846 | 33988 ft | 459 kts | 201° |
| 2026-04-25 16:46 | -13.31473 | 27.74266 | 33991 ft | 458 kts | 201° |